createdAt,value
2023-03-29T00:01:00.308Z,2.38
2023-03-29T00:03:10.491Z,2.33
2023-03-29T00:05:20.044Z,2.60
2023-03-29T00:07:26.457Z,4.38
2023-03-29T00:09:32.605Z,2.85
2023-03-29T00:11:37.933Z,2.95
2023-03-29T00:13:43.498Z,3.05
2023-03-29T00:15:54.593Z,2.90
2023-03-29T00:18:00.183Z,2.80
2023-03-29T00:20:05.763Z,2.63
2023-03-29T00:22:14.052Z,2.83
2023-03-29T00:24:21.557Z,2.80
2023-03-29T00:26:27.909Z,2.40
2023-03-29T00:28:33.726Z,2.47
2023-03-29T00:30:43.018Z,2.67
2023-03-29T00:32:48.419Z,2.10
2023-03-29T00:34:55.035Z,2.28
2023-03-29T00:37:01.878Z,2.42
2023-03-29T00:39:12.125Z,2.65
2023-03-29T00:41:17.391Z,2.58
2023-03-29T00:43:25.280Z,2.85
2023-03-29T00:45:36.058Z,3.10
2023-03-29T00:47:46.432Z,2.97
2023-03-29T00:49:53.807Z,3.03
2023-03-29T00:51:58.899Z,2.95
2023-03-29T00:54:15.369Z,3.00
2023-03-29T00:56:30.033Z,2.97
2023-03-29T00:58:40.933Z,3.28
2023-03-29T01:00:55.908Z,2.85
2023-03-29T01:03:09.129Z,3.15
2023-03-29T01:05:20.737Z,3.33
2023-03-29T01:07:30.896Z,3.00
2023-03-29T01:09:43.371Z,2.80
2023-03-29T01:11:55.662Z,3.17
2023-03-29T01:14:11.114Z,3.08
2023-03-29T01:16:18.994Z,4.03
2023-03-29T01:18:24.912Z,3.33
2023-03-29T01:20:48.672Z,3.70
2023-03-29T01:23:14.717Z,3.30
2023-03-29T01:25:41.467Z,2.83
2023-03-29T01:27:57.760Z,3.42
2023-03-29T01:30:10.705Z,3.33
2023-03-29T01:32:22.418Z,3.40
2023-03-29T01:34:35.885Z,3.05
2023-03-29T01:36:51.200Z,3.00
2023-03-29T01:39:05.385Z,3.03
2023-03-29T01:41:11.535Z,3.00
2023-03-29T01:43:30.599Z,2.50
2023-03-29T01:45:47.007Z,2.42
2023-03-29T01:48:08.789Z,2.90
2023-03-29T01:50:19.121Z,2.88
2023-03-29T01:52:32.925Z,2.38
2023-03-29T01:54:41.892Z,2.13
2023-03-29T01:56:51.265Z,2.40
2023-03-29T01:59:06.263Z,2.15
2023-03-29T02:01:14.141Z,2.42
2023-03-29T02:05:27.299Z,2.63
2023-03-29T02:07:38.370Z,2.17
2023-03-29T02:09:45.160Z,2.45
2023-03-29T02:11:54.403Z,2.63
2023-03-29T02:14:03.579Z,2.58
2023-03-29T02:16:13.147Z,2.60
2023-03-29T02:18:19.983Z,2.17
2023-03-29T02:20:32.908Z,2.17
2023-03-29T02:22:44.577Z,2.47
2023-03-29T02:24:56.240Z,2.95
2023-03-29T02:27:02.023Z,2.83
2023-03-29T02:29:22.233Z,2.15
2023-03-29T02:31:38.068Z,2.08
2023-03-29T02:33:52.286Z,2.40
2023-03-29T02:36:03.390Z,2.50
2023-03-29T02:38:14.832Z,2.08
2023-03-29T02:40:24.697Z,2.67
2023-03-29T02:42:31.544Z,2.45
2023-03-29T02:44:43.360Z,2.10
2023-03-29T02:46:53.604Z,2.10
2023-03-29T02:49:01.691Z,1.90
2023-03-29T02:51:17.429Z,1.95
2023-03-29T02:53:33.155Z,2.13
2023-03-29T02:55:41.575Z,2.08
2023-03-29T02:59:54.948Z,2.05
2023-03-29T03:02:03.573Z,2.30
2023-03-29T03:04:10.490Z,1.80
2023-03-29T03:06:16.176Z,2.00
2023-03-29T03:08:22.801Z,1.83
2023-03-29T03:10:31.237Z,1.88
2023-03-29T03:12:37.480Z,1.90
2023-03-29T03:14:42.858Z,2.03
2023-03-29T03:16:53.179Z,2.10
2023-03-29T03:18:58.607Z,1.95
2023-03-29T03:21:05.350Z,2.00
2023-03-29T03:23:12.706Z,2.60
2023-03-29T03:25:20.914Z,2.53
2023-03-29T03:27:27.422Z,1.75
2023-03-29T03:29:32.754Z,2.25
2023-03-29T03:32:12.730Z,2.65
2023-03-29T03:34:49.819Z,1.98
2023-03-29T03:36:56.507Z,2.28
2023-03-29T03:39:01.747Z,1.67
2023-03-29T03:41:11.921Z,2.13
2023-03-29T03:43:19.609Z,2.10
2023-03-29T03:45:30.068Z,2.20
2023-03-29T03:47:57.880Z,2.38
2023-03-29T03:50:29.139Z,2.10
2023-03-29T03:52:35.259Z,2.25
2023-03-29T03:54:41.998Z,2.10
2023-03-29T03:57:19.667Z,2.13
2023-03-29T03:59:29.142Z,2.40
2023-03-29T04:01:43.652Z,2.22
2023-03-29T04:03:58.024Z,2.00
2023-03-29T04:06:06.696Z,2.47
2023-03-29T04:08:34.415Z,2.20
2023-03-29T04:10:55.808Z,2.35
2023-03-29T04:13:09.844Z,2.35
2023-03-29T04:15:39.389Z,2.17
2023-03-29T04:17:48.363Z,2.30
2023-03-29T04:20:13.464Z,2.17
2023-03-29T04:22:22.132Z,2.08
2023-03-29T04:26:57.312Z,2.00
2023-03-29T04:29:05.532Z,2.25
2023-03-29T04:31:25.685Z,2.30
2023-03-29T04:33:40.758Z,2.80
2023-03-29T04:35:49.175Z,2.42
2023-03-29T04:37:57.632Z,2.10
2023-03-29T04:40:04.926Z,2.10
2023-03-29T04:42:24.633Z,2.35
2023-03-29T04:44:32.664Z,2.13
2023-03-29T04:46:40.364Z,2.28
2023-03-29T04:49:12.992Z,2.22
2023-03-29T04:51:24.608Z,2.35
2023-03-29T04:53:31.836Z,2.20
2023-03-29T04:55:42.853Z,2.22
2023-03-29T04:57:53.541Z,2.28
2023-03-29T05:00:09.551Z,1.83
2023-03-29T05:02:38.825Z,2.30
2023-03-29T05:04:48.709Z,2.10
2023-03-29T05:06:59.630Z,2.38
2023-03-29T05:09:05.022Z,2.45
2023-03-29T05:11:25.280Z,2.28
2023-03-29T05:13:30.820Z,2.00
2023-03-29T05:15:36.444Z,2.50
2023-03-29T05:17:44.102Z,2.30
2023-03-29T05:19:50.921Z,2.17
2023-03-29T05:22:00.166Z,2.00
2023-03-29T05:24:06.107Z,2.28
2023-03-29T05:26:35.675Z,2.67
2023-03-29T05:28:41.922Z,2.40
2023-03-29T05:30:47.809Z,2.70
2023-03-29T05:32:59.395Z,2.40
2023-03-29T05:35:07.045Z,2.40
2023-03-29T05:37:16.183Z,2.65
2023-03-29T05:39:29.528Z,2.25
2023-03-29T05:41:35.155Z,2.50
2023-03-29T05:44:03.674Z,2.72
2023-03-29T05:46:13.605Z,2.58
2023-03-29T05:48:27.327Z,2.97
2023-03-29T05:50:37.262Z,2.75
2023-03-29T05:52:46.061Z,3.17
2023-03-29T05:54:51.697Z,2.85
2023-03-29T05:56:57.297Z,2.85
2023-03-29T05:59:02.438Z,3.30
2023-03-29T06:01:13.473Z,3.15
2023-03-29T06:03:33.902Z,2.97
2023-03-29T06:05:39.986Z,2.95
2023-03-29T06:07:48.882Z,3.08
2023-03-29T06:10:15.799Z,2.65
2023-03-29T06:12:26.437Z,2.85
2023-03-29T06:14:37.432Z,3.33
2023-03-29T06:17:05.358Z,3.10
2023-03-29T06:19:10.880Z,2.97
2023-03-29T06:21:17.699Z,2.53
2023-03-29T06:23:26.317Z,2.50
2023-03-29T06:25:31.960Z,2.50
2023-03-29T06:27:37.700Z,2.40
2023-03-29T06:29:44.737Z,2.38
2023-03-29T06:31:50.196Z,2.72
2023-03-29T06:34:17.009Z,2.47
2023-03-29T06:36:57.801Z,2.20
2023-03-29T06:39:08.772Z,2.65
2023-03-29T06:41:38.547Z,2.08
2023-03-29T06:43:43.833Z,2.22
2023-03-29T06:45:53.487Z,2.33
2023-03-29T06:48:07.940Z,2.45
2023-03-29T06:50:18.412Z,2.55
2023-03-29T06:52:36.178Z,2.47
2023-03-29T06:54:43.945Z,2.67
2023-03-29T06:58:58.315Z,2.80
2023-03-29T07:01:11.970Z,2.15
2023-03-29T07:03:35.053Z,2.60
2023-03-29T07:05:45.026Z,2.63
2023-03-29T07:07:57.042Z,2.85
2023-03-29T07:12:50.882Z,2.40
2023-03-29T07:14:56.510Z,2.40
2023-03-29T07:17:07.544Z,2.50
2023-03-29T07:19:19.868Z,2.25
2023-03-29T07:21:36.698Z,2.33
2023-03-29T07:23:44.150Z,2.10
2023-03-29T07:25:52.446Z,2.30
2023-03-29T07:27:58.029Z,2.20
2023-03-29T07:30:04.104Z,2.10
2023-03-29T07:32:10.831Z,2.03
2023-03-29T07:34:33.621Z,2.08
2023-03-29T07:36:38.969Z,2.20
2023-03-29T07:38:44.258Z,1.67
2023-03-29T07:40:59.264Z,2.17
2023-03-29T07:43:28.558Z,2.20
2023-03-29T07:45:33.902Z,2.17
2023-03-29T07:47:52.582Z,2.25
2023-03-29T07:49:59.297Z,2.45
2023-03-29T07:52:07.172Z,2.13
2023-03-29T07:54:13.022Z,2.30
2023-03-29T07:56:28.504Z,2.38
2023-03-29T07:58:51.006Z,2.20
2023-03-29T08:00:57.693Z,1.98
2023-03-29T08:03:24.587Z,2.05
2023-03-29T08:05:40.722Z,2.15
2023-03-29T08:07:53.826Z,2.20
2023-03-29T08:10:25.795Z,1.92
2023-03-29T08:12:54.897Z,2.05
2023-03-29T08:15:09.722Z,2.60
2023-03-29T08:17:18.036Z,1.98
2023-03-29T08:19:27.442Z,1.85
2023-03-29T08:21:41.548Z,1.70
2023-03-29T08:23:47.195Z,2.10
2023-03-29T08:25:58.617Z,2.25
2023-03-29T08:28:08.463Z,1.75
2023-03-29T08:30:28.332Z,2.30
2023-03-29T08:32:36.307Z,2.00
2023-03-29T08:34:41.428Z,1.95
2023-03-29T08:36:55.993Z,2.33
2023-03-29T08:39:08.419Z,2.17
2023-03-29T08:41:35.388Z,2.10
2023-03-29T08:44:07.257Z,1.70
2023-03-29T08:46:59.488Z,1.95
2023-03-29T08:49:13.584Z,1.93
2023-03-29T08:51:26.273Z,2.20
2023-03-29T08:53:39.392Z,1.90
2023-03-29T08:55:58.171Z,1.67
2023-03-29T08:58:29.513Z,2.00
2023-03-29T09:00:43.020Z,2.03
2023-03-29T09:02:51.984Z,2.00
2023-03-29T09:05:05.005Z,2.30
2023-03-29T09:07:20.095Z,2.00
2023-03-29T09:09:31.784Z,2.47
2023-03-29T09:12:01.825Z,2.10
2023-03-29T09:14:44.271Z,1.83
2023-03-29T09:17:02.529Z,2.30
2023-03-29T09:19:19.194Z,1.85
2023-03-29T09:21:34.169Z,1.83
2023-03-29T09:23:58.245Z,1.83
2023-03-29T09:26:18.354Z,2.60
2023-03-29T09:28:45.861Z,1.52
2023-03-29T09:30:59.392Z,1.75
2023-03-29T09:33:15.964Z,1.80
2023-03-29T09:35:49.993Z,1.90
2023-03-29T09:37:57.853Z,2.10
2023-03-29T09:40:07.317Z,2.70
2023-03-29T09:42:33.461Z,2.40
2023-03-29T09:44:47.286Z,2.00
2023-03-29T09:47:03.940Z,2.47
2023-03-29T09:49:23.072Z,2.50
2023-03-29T09:51:32.769Z,2.17
2023-03-29T09:53:39.345Z,2.65
2023-03-29T09:56:03.421Z,2.20
2023-03-29T09:58:31.864Z,2.20
2023-03-29T10:00:38.178Z,2.53
2023-03-29T10:02:43.494Z,2.08
2023-03-29T10:05:04.151Z,2.17
2023-03-29T10:07:10.570Z,2.20
2023-03-29T10:09:21.697Z,1.92
2023-03-29T10:11:37.779Z,2.25
2023-03-29T10:13:50.985Z,1.90
2023-03-29T10:16:10.409Z,2.30
2023-03-29T10:18:19.071Z,2.20
2023-03-29T10:20:29.692Z,2.67
2023-03-29T10:22:40.607Z,2.28
2023-03-29T10:24:52.230Z,2.00
2023-03-29T10:27:01.530Z,2.30
2023-03-29T10:29:09.638Z,2.78
2023-03-29T10:31:23.245Z,1.98
2023-03-29T10:33:34.179Z,2.20
2023-03-29T10:35:45.042Z,2.03
2023-03-29T10:37:54.856Z,1.77
2023-03-29T10:40:01.380Z,2.40
2023-03-29T10:42:10.104Z,2.15
2023-03-29T10:44:33.312Z,2.10
2023-03-29T10:46:46.899Z,2.13
2023-03-29T10:48:59.193Z,2.30
2023-03-29T10:51:08.648Z,2.38
2023-03-29T10:53:25.272Z,2.40
2023-03-29T10:55:42.304Z,2.17
2023-03-29T10:58:03.446Z,2.53
2023-03-29T11:00:23.609Z,2.40
2023-03-29T11:03:21.455Z,2.38
2023-03-29T11:07:50.798Z,2.55
2023-03-29T11:10:07.260Z,2.30
2023-03-29T11:12:21.869Z,2.30
2023-03-29T11:14:40.421Z,2.40
2023-03-29T11:16:53.857Z,2.40
2023-03-29T11:19:28.078Z,2.20
2023-03-29T11:21:47.088Z,2.47
2023-03-29T11:24:11.918Z,2.72
2023-03-29T11:26:25.427Z,2.78
2023-03-29T11:28:42.344Z,2.30
2023-03-29T11:30:55.984Z,2.13
2023-03-29T11:33:16.568Z,2.47
2023-03-29T11:35:48.427Z,2.47
2023-03-29T11:38:02.838Z,2.30
2023-03-29T11:40:32.593Z,2.15
2023-03-29T11:42:43.007Z,2.05
2023-03-29T11:44:54.623Z,1.98
2023-03-29T11:47:06.063Z,2.35
2023-03-29T11:49:20.188Z,2.05
2023-03-29T11:51:30.905Z,1.58
2023-03-29T11:53:47.538Z,2.00
2023-03-29T11:55:59.888Z,2.03
2023-03-29T11:58:13.117Z,2.00
2023-03-29T12:00:23.035Z,2.17
2023-03-29T12:02:37.044Z,1.83
2023-03-29T12:04:51.742Z,2.00
2023-03-29T12:07:08.734Z,1.80
2023-03-29T12:09:26.479Z,1.90
2023-03-29T12:11:43.354Z,1.77
2023-03-29T12:13:57.002Z,1.58
2023-03-29T12:16:13.811Z,1.50
2023-03-29T12:18:25.458Z,1.60
2023-03-29T12:20:37.706Z,1.85
2023-03-29T12:22:46.391Z,1.52
2023-03-29T12:24:57.948Z,1.40
2023-03-29T12:27:24.179Z,1.77
2023-03-29T12:29:59.137Z,1.45
2023-03-29T12:32:36.014Z,1.40
2023-03-29T12:35:19.478Z,1.20
2023-03-29T12:38:18.028Z,0.98
2023-03-29T12:41:01.670Z,1.20
2023-03-29T12:43:33.522Z,1.38
2023-03-29T12:45:59.267Z,1.77
2023-03-29T12:48:04.826Z,2.10
2023-03-29T12:50:28.702Z,1.83
2023-03-29T12:52:37.357Z,1.63
2023-03-29T12:54:44.262Z,1.77
2023-03-29T12:57:22.149Z,1.88
2023-03-29T12:59:43.145Z,1.50
2023-03-29T13:02:05.576Z,1.58
2023-03-29T13:04:22.997Z,1.70
2023-03-29T13:06:36.693Z,1.52
2023-03-29T13:08:46.955Z,1.50
2023-03-29T13:10:57.517Z,1.70
2023-03-29T13:13:18.406Z,1.55
2023-03-29T13:15:30.931Z,1.55
2023-03-29T13:17:51.730Z,1.40
2023-03-29T13:20:17.289Z,1.23
2023-03-29T13:22:35.833Z,1.60
2023-03-29T13:25:07.798Z,1.80
2023-03-29T13:27:26.383Z,1.80
2023-03-29T13:29:58.960Z,1.42
2023-03-29T13:32:27.289Z,1.38
2023-03-29T13:34:48.679Z,1.60
2023-03-29T13:37:11.911Z,1.38
2023-03-29T13:39:24.002Z,1.83
2023-03-29T13:41:48.879Z,1.75
2023-03-29T13:43:57.621Z,2.00
2023-03-29T13:46:27.098Z,1.42
2023-03-29T13:48:51.489Z,1.65
2023-03-29T13:51:01.099Z,1.67
2023-03-29T13:53:20.914Z,1.50
2023-03-29T13:55:33.592Z,1.50
2023-03-29T13:57:47.496Z,1.40
2023-03-29T14:00:02.368Z,1.40
2023-03-29T14:02:42.805Z,1.35
2023-03-29T14:04:54.353Z,1.35
2023-03-29T14:07:00.758Z,1.80
2023-03-29T14:09:10.804Z,1.77
2023-03-29T14:11:26.437Z,1.77
2023-03-29T14:13:33.147Z,1.65
2023-03-29T14:15:48.283Z,1.70
2023-03-29T14:18:01.627Z,1.20
2023-03-29T14:20:12.463Z,1.60
2023-03-29T14:22:22.544Z,1.92
2023-03-29T14:24:36.652Z,1.52
2023-03-29T14:26:47.700Z,1.30
2023-03-29T14:28:56.846Z,1.48
2023-03-29T14:31:02.254Z,1.50
2023-03-29T14:33:08.695Z,1.55
2023-03-29T14:35:16.745Z,1.90
2023-03-29T14:37:26.958Z,1.45
2023-03-29T14:39:37.110Z,1.88
2023-03-29T14:41:46.367Z,1.52
2023-03-29T14:43:51.708Z,1.80
2023-03-29T14:46:00.636Z,1.60
2023-03-29T14:48:09.321Z,1.80
2023-03-29T14:50:24.684Z,1.52
2023-03-29T14:52:31.177Z,1.65
2023-03-29T14:54:38.112Z,1.30
2023-03-29T14:56:43.594Z,1.40
2023-03-29T14:58:50.516Z,1.77
2023-03-29T15:00:56.631Z,1.83
2023-03-29T15:03:05.346Z,1.70
2023-03-29T15:05:36.912Z,1.30
2023-03-29T15:07:46.414Z,1.67
2023-03-29T15:09:51.830Z,1.30
2023-03-29T15:12:01.340Z,2.38
2023-03-29T15:14:11.371Z,1.70
2023-03-29T15:16:24.468Z,1.40
2023-03-29T15:18:35.873Z,1.75
2023-03-29T15:20:45.551Z,1.77
2023-03-29T15:23:06.989Z,1.70
2023-03-29T15:25:22.476Z,1.65
2023-03-29T15:27:27.831Z,1.80
2023-03-29T15:29:42.545Z,1.90
2023-03-29T15:32:03.877Z,2.08
2023-03-29T15:34:13.926Z,1.65
2023-03-29T15:36:21.802Z,1.85
2023-03-29T15:38:36.715Z,1.80
2023-03-29T15:40:52.890Z,1.80
2023-03-29T15:43:01.206Z,1.85
2023-03-29T15:45:09.258Z,2.17
2023-03-29T15:47:15.165Z,1.95
2023-03-29T15:49:23.902Z,1.90
2023-03-29T15:51:34.700Z,2.10
2023-03-29T15:53:40.192Z,2.60
2023-03-29T15:55:50.871Z,2.13
2023-03-29T15:57:58.233Z,2.47
2023-03-29T16:02:21.425Z,2.15
2023-03-29T16:04:28.852Z,2.25
2023-03-29T16:06:41.965Z,2.00
2023-03-29T16:08:51.033Z,2.25
2023-03-29T16:10:56.306Z,1.92
2023-03-29T16:13:03.060Z,1.80
2023-03-29T16:15:20.894Z,2.05
2023-03-29T16:17:28.682Z,2.17
2023-03-29T16:19:36.937Z,1.90
2023-03-29T16:21:45.382Z,3.08
2023-03-29T16:23:52.146Z,2.25
2023-03-29T16:25:59.407Z,2.40
2023-03-29T16:28:05.049Z,2.40
2023-03-29T16:30:13.948Z,2.10
2023-03-29T16:32:19.160Z,2.38
2023-03-29T16:34:25.132Z,2.40
2023-03-29T16:36:32.122Z,2.40
2023-03-29T16:38:40.137Z,2.03
2023-03-29T16:40:45.775Z,1.90
2023-03-29T16:42:54.157Z,2.10
2023-03-29T16:45:02.150Z,2.40
2023-03-29T16:47:11.030Z,2.70
2023-03-29T16:49:19.658Z,2.88
2023-03-29T16:51:24.921Z,2.60
2023-03-29T16:53:30.441Z,2.95
2023-03-29T16:55:38.249Z,3.10
2023-03-29T16:57:46.469Z,2.55
2023-03-29T16:59:51.720Z,2.33
2023-03-29T17:02:00.225Z,2.40
2023-03-29T17:04:06.363Z,2.30
2023-03-29T17:06:16.073Z,2.42
2023-03-29T17:08:23.034Z,2.33
2023-03-29T17:10:30.151Z,2.67
2023-03-29T17:12:38.637Z,2.13
2023-03-29T17:14:44.906Z,2.05
2023-03-29T17:16:52.487Z,2.28
2023-03-29T17:18:58.936Z,2.00
2023-03-29T17:21:05.427Z,1.88
2023-03-29T17:23:14.292Z,2.05
2023-03-29T17:25:19.482Z,2.20
2023-03-29T17:27:25.201Z,2.03
2023-03-29T17:29:33.161Z,2.10
2023-03-29T17:31:47.458Z,2.13
2023-03-29T17:33:53.824Z,2.35
2023-03-29T17:35:59.465Z,2.13
2023-03-29T17:38:07.902Z,1.90
2023-03-29T17:40:14.767Z,1.73
2023-03-29T17:42:20.347Z,2.30
2023-03-29T17:44:29.126Z,2.35
2023-03-29T17:46:38.062Z,2.40
2023-03-29T17:48:43.608Z,2.67
2023-03-29T17:50:48.754Z,2.88
2023-03-29T17:52:54.368Z,2.75
2023-03-29T17:54:59.419Z,2.65
2023-03-29T17:57:04.803Z,2.67
2023-03-29T17:59:13.002Z,2.95
2023-03-29T18:01:20.076Z,2.60
2023-03-29T18:03:28.633Z,2.90
2023-03-29T18:05:37.455Z,2.85
2023-03-29T18:07:43.000Z,3.58
2023-03-29T18:09:52.904Z,3.30
2023-03-29T18:11:58.428Z,3.28
2023-03-29T18:14:05.241Z,3.40
2023-03-29T18:16:12.370Z,3.00
2023-03-29T18:18:17.600Z,3.05
2023-03-29T18:20:25.284Z,3.13
2023-03-29T18:24:41.205Z,3.35
2023-03-29T18:26:47.572Z,3.28
2023-03-29T18:28:54.443Z,2.95
2023-03-29T18:31:02.692Z,3.28
2023-03-29T18:33:09.717Z,3.03
2023-03-29T18:35:19.860Z,3.30
2023-03-29T18:37:28.811Z,2.90
2023-03-29T18:39:34.802Z,2.92
2023-03-29T18:41:40.490Z,2.90
2023-03-29T18:43:46.950Z,2.83
2023-03-29T18:45:52.349Z,2.38
2023-03-29T18:47:59.833Z,2.65
2023-03-29T18:50:05.231Z,2.83
2023-03-29T18:52:12.393Z,2.92
2023-03-29T18:54:23.056Z,3.20
2023-03-29T18:56:28.420Z,2.58
2023-03-29T18:58:33.795Z,3.03
2023-03-29T19:00:38.921Z,2.35
2023-03-29T19:02:45.453Z,2.78
2023-03-29T19:04:50.995Z,2.80
2023-03-29T19:06:56.356Z,2.95
2023-03-29T19:09:02.146Z,3.00
2023-03-29T19:11:14.428Z,2.90
2023-03-29T19:13:19.838Z,2.72
2023-03-29T19:15:27.469Z,2.63
2023-03-29T19:17:34.543Z,3.13
2023-03-29T19:19:40.725Z,2.55
2023-03-29T19:21:47.139Z,3.30
2023-03-29T19:23:56.088Z,3.07
2023-03-29T19:26:04.124Z,2.95
2023-03-29T19:28:12.162Z,2.90
2023-03-29T19:30:20.257Z,2.67
2023-03-29T19:32:25.487Z,2.60
2023-03-29T19:34:31.106Z,2.63
2023-03-29T19:36:37.560Z,2.58
2023-03-29T19:38:43.646Z,2.80
2023-03-29T19:40:49.829Z,2.10
2023-03-29T19:42:55.261Z,2.30
2023-03-29T19:45:04.275Z,2.55
2023-03-29T19:49:17.482Z,1.98
2023-03-29T19:51:22.890Z,2.30
2023-03-29T19:53:28.279Z,2.45
2023-03-29T19:55:42.383Z,2.47
2023-03-29T19:57:47.911Z,2.78
2023-03-29T19:59:59.883Z,2.28
2023-03-29T20:02:08.081Z,2.65
2023-03-29T20:04:14.325Z,2.55
2023-03-29T20:06:19.979Z,2.60
2023-03-29T20:08:25.595Z,2.50
2023-03-29T20:10:31.090Z,2.40
2023-03-29T20:12:37.273Z,2.83
2023-03-29T20:14:44.723Z,2.90
2023-03-29T20:16:50.916Z,2.55
2023-03-29T20:19:02.039Z,2.60
2023-03-29T20:21:10.059Z,2.92
2023-03-29T20:23:18.654Z,3.00
2023-03-29T20:25:24.053Z,2.80
2023-03-29T20:27:31.409Z,2.92
2023-03-29T20:29:37.066Z,2.88
2023-03-29T20:31:43.838Z,2.78
2023-03-29T20:33:48.928Z,3.40
2023-03-29T20:35:58.425Z,3.00
2023-03-29T20:38:03.626Z,3.05
2023-03-29T20:40:13.707Z,2.63
2023-03-29T20:42:32.651Z,3.33
2023-03-29T20:44:39.338Z,3.20
2023-03-29T20:47:03.391Z,2.60
2023-03-29T20:49:16.803Z,3.17
2023-03-29T20:51:28.534Z,3.47
2023-03-29T20:53:34.976Z,2.58
2023-03-29T20:55:43.401Z,3.03
2023-03-29T20:57:48.556Z,2.53
2023-03-29T20:59:56.700Z,2.58
2023-03-29T21:02:02.310Z,2.25
2023-03-29T21:04:10.978Z,2.65
2023-03-29T21:06:19.583Z,2.20
2023-03-29T21:08:31.472Z,2.80
2023-03-29T21:10:43.543Z,2.20
2023-03-29T21:12:58.586Z,2.30
2023-03-29T21:15:04.225Z,2.63
2023-03-29T21:17:10.356Z,2.70
2023-03-29T21:19:17.301Z,2.35
2023-03-29T21:21:27.259Z,2.50
2023-03-29T21:23:36.150Z,2.35
2023-03-29T21:25:44.399Z,2.60
2023-03-29T21:27:50.471Z,2.55
2023-03-29T21:29:55.614Z,2.22
2023-03-29T21:32:01.150Z,2.10
2023-03-29T21:34:07.922Z,2.10
2023-03-29T21:36:13.153Z,2.38
2023-03-29T21:38:20.604Z,2.30
2023-03-29T21:40:33.542Z,2.53
2023-03-29T21:42:44.293Z,2.60
2023-03-29T21:44:49.353Z,2.10
2023-03-29T21:46:54.664Z,2.50
2023-03-29T21:49:01.421Z,2.35
2023-03-29T21:51:13.614Z,2.28
2023-03-29T21:53:21.309Z,1.90
2023-03-29T21:55:36.486Z,2.22
2023-03-29T21:57:42.112Z,1.92
2023-03-29T21:59:47.214Z,2.38
2023-03-29T22:01:54.293Z,2.17
2023-03-29T22:03:59.764Z,2.28
2023-03-29T22:06:18.140Z,1.80
2023-03-29T22:08:24.419Z,1.85
2023-03-29T22:10:33.743Z,1.90
2023-03-29T22:12:39.579Z,1.98
2023-03-29T22:14:46.286Z,2.30
2023-03-29T22:16:51.433Z,2.10
2023-03-29T22:18:58.848Z,2.15
2023-03-29T22:21:07.472Z,1.98
2023-03-29T22:23:13.459Z,1.90
2023-03-29T22:25:23.217Z,2.00
2023-03-29T22:27:32.227Z,2.00
2023-03-29T22:29:37.756Z,1.75
2023-03-29T22:31:45.698Z,2.00
2023-03-29T22:33:52.940Z,2.22
2023-03-29T22:36:01.394Z,1.80
2023-03-29T22:38:08.641Z,1.58
2023-03-29T22:40:20.993Z,1.88
2023-03-29T22:42:26.129Z,1.73
2023-03-29T22:44:34.506Z,1.70
2023-03-29T22:46:42.089Z,1.73
2023-03-29T22:48:48.835Z,1.77
2023-03-29T22:50:54.352Z,2.30
2023-03-29T22:53:00.732Z,2.20
2023-03-29T22:55:10.547Z,2.03
2023-03-29T22:57:21.697Z,2.08
2023-03-29T22:59:29.888Z,2.10
2023-03-29T23:01:41.982Z,2.17
2023-03-29T23:03:47.532Z,1.50
2023-03-29T23:05:54.199Z,1.80
2023-03-29T23:07:59.286Z,2.22
2023-03-29T23:10:07.838Z,2.28
2023-03-29T23:12:15.632Z,2.05
2023-03-29T23:14:20.741Z,2.35
2023-03-29T23:16:26.272Z,2.13
2023-03-29T23:18:37.704Z,2.55
2023-03-29T23:20:44.741Z,1.98
2023-03-29T23:22:52.238Z,2.20
2023-03-29T23:24:57.502Z,2.00
2023-03-29T23:27:05.343Z,2.10
2023-03-29T23:29:10.473Z,2.15
2023-03-29T23:31:21.261Z,2.40
2023-03-29T23:33:28.017Z,1.88
2023-03-29T23:35:38.327Z,2.00
2023-03-29T23:37:46.227Z,1.95
2023-03-29T23:39:51.796Z,1.95
2023-03-29T23:42:01.002Z,1.90
2023-03-29T23:44:07.688Z,1.88
2023-03-29T23:46:19.159Z,2.08
2023-03-29T23:48:26.135Z,2.10
2023-03-29T23:50:31.625Z,2.22
2023-03-29T23:52:40.716Z,2.00
2023-03-29T23:54:48.249Z,1.77
2023-03-29T23:58:58.938Z,1.80
